PWSweather.com
Personal Weather Stations
Station Observations
KVAGLENALL
West Henrico, Glen Allen, VA 23060-6503

West HenricoGlen Allen, VA 23060-6503

Lat: 37.6554, Lon: -77.5693

Elevation: 273

Station Type: Davis Vantage Pro II

Latest ConditionsUpdated 7:30:19 AM EDT Tuesday, Aug 4, 2015
Currently Today's Max Today's Min Today's Average
Temperature 75.7°F24.3°C 79.9°F26.6°C 75.0°F23.9°C 77.5°F25.3°C
Dew Point 70.3°F21.3°C 71.6°F22.0°C 69.2°F20.7°C 70.7°F21.5°C
Winds 10.0 mph S16.1 kmh S 10.0 mph S16.1 kmh S - 4.8 mph 7.7 kmh
Wind Gusts 10.1 mph16.3 kmh 17.2 mph27.7 kmh - -
Humidity 83% 86% 75% 79%
Pressure 29.95 in1014.2 mb 29.95 in1014.2 mb 29.88 in1011.9 mb -
Hour Temp Dew Point Humidity Winds Wind Gusts Pressure Precip Precip Rate Daily Precip Total
07:30 AM 75.7°F24.3°C 70.3°F21.3°C 83% 10.0 mph S16.1 kmh S 10.1 mph16.3 kmh 29.95 in1014.2 mb 0.00 in0.0 mm 0.00 in0.0 mm 0.00 in0.0 mm
07:15 AM 75.4°F24.1°C 70.4°F21.3°C 84% 4.0 mph S6.4 kmh S 9.1 mph14.6 kmh 29.95 in1014.2 mb 0.00 in0.0 mm 0.00 in0.0 mm 0.00 in0.0 mm
07:00 AM 75.0°F23.9°C 70.3°F21.3°C 85% 1.0 mph SSW1.6 kmh SSW 6.1 mph9.8 kmh 29.94 in1013.9 mb 0.00 in0.0 mm 0.00 in0.0 mm 0.00 in0.0 mm
06:45 AM 75.0°F23.9°C 70.3°F21.3°C 85% 3.0 mph S4.8 kmh S 12.1 mph19.5 kmh 29.94 in1013.9 mb 0.00 in0.0 mm 0.00 in0.0 mm 0.00 in0.0 mm
06:30 AM 75.0°F23.9°C 70.3°F21.3°C 85% 6.0 mph SSW9.7 kmh SSW 14.1 mph22.7 kmh 29.94 in1013.9 mb 0.00 in0.0 mm 0.00 in0.0 mm 0.00 in0.0 mm
06:15 AM 75.0°F23.9°C 70.7°F21.5°C 86% 5.0 mph SSE8.0 kmh SSE 7.1 mph11.4 kmh 29.94 in1013.9 mb 0.00 in0.0 mm 0.00 in0.0 mm 0.00 in0.0 mm
06:00 AM 75.2°F24.0°C 70.9°F21.6°C 86% 5.0 mph S8.0 kmh S 11.1 mph17.9 kmh 29.93 in1013.5 mb 0.00 in0.0 mm 0.00 in0.0 mm 0.00 in0.0 mm
05:45 AM 75.7°F24.3°C 71.0°F21.7°C 85% 7.0 mph S11.3 kmh S 12.1 mph19.5 kmh 29.92 in1013.2 mb 0.00 in0.0 mm 0.00 in0.0 mm 0.00 in0.0 mm
05:30 AM 76.1°F24.5°C 70.7°F21.5°C 83% 6.0 mph S9.7 kmh S 6.1 mph9.8 kmh 29.91 in1012.9 mb 0.00 in0.0 mm 0.00 in0.0 mm 0.00 in0.0 mm
05:15 AM 76.4°F24.7°C 70.6°F21.4°C 82% 4.0 mph S6.4 kmh S 6.1 mph9.8 kmh 29.91 in1012.9 mb 0.00 in0.0 mm 0.00 in0.0 mm 0.00 in0.0 mm
05:00 AM 76.8°F24.9°C 70.6°F21.4°C 81% 5.0 mph SSW8.0 kmh SSW 10.1 mph16.3 kmh 29.91 in1012.9 mb 0.00 in0.0 mm 0.00 in0.0 mm 0.00 in0.0 mm
04:45 AM 77.1°F25.1°C 70.6°F21.4°C 80% 4.0 mph SE6.4 kmh SE 11.1 mph17.9 kmh 29.90 in1012.5 mb 0.00 in0.0 mm 0.00 in0.0 mm 0.00 in0.0 mm
04:30 AM 77.5°F25.3°C 71.0°F21.7°C 80% 10.0 mph SSW16.1 kmh SSW 11.1 mph17.9 kmh 29.91 in1012.9 mb 0.00 in0.0 mm 0.00 in0.0 mm 0.00 in0.0 mm
04:15 AM 77.7°F25.4°C 70.8°F21.6°C 79% 3.0 mph S4.8 kmh S 8.1 mph13.0 kmh 29.91 in1012.9 mb 0.00 in0.0 mm 0.00 in0.0 mm 0.00 in0.0 mm
04:00 AM 77.8°F25.4°C 70.9°F21.6°C 79% 6.0 mph S9.7 kmh S 10.1 mph16.3 kmh 29.90 in1012.5 mb 0.00 in0.0 mm 0.00 in0.0 mm 0.00 in0.0 mm
03:45 AM 78.0°F25.6°C 70.7°F21.5°C 78% 1.0 mph S1.6 kmh S 11.1 mph17.9 kmh 29.90 in1012.5 mb 0.00 in0.0 mm 0.00 in0.0 mm 0.00 in0.0 mm
03:30 AM 78.4°F25.8°C 71.1°F21.7°C 78% 6.0 mph S9.7 kmh S 8.1 mph13.0 kmh 29.89 in1012.2 mb 0.00 in0.0 mm 0.00 in0.0 mm 0.00 in0.0 mm
03:15 AM 78.7°F25.9°C 71.0°F21.7°C 77% 5.0 mph SSW8.0 kmh SSW 7.1 mph11.4 kmh 29.89 in1012.2 mb 0.00 in0.0 mm 0.00 in0.0 mm 0.00 in0.0 mm
03:00 AM 78.9°F26.1°C 70.8°F21.6°C 76% 9.0 mph SSW14.5 kmh SSW 13.1 mph21.1 kmh 29.89 in1012.2 mb 0.00 in0.0 mm 0.00 in0.0 mm 0.00 in0.0 mm
02:45 AM 79.3°F26.3°C 70.8°F21.6°C 75% 2.0 mph SW3.2 kmh SW 9.1 mph14.6 kmh 29.89 in1012.2 mb 0.00 in0.0 mm 0.00 in0.0 mm 0.00 in0.0 mm
02:30 AM 79.5°F26.4°C 71.0°F21.7°C 75% 3.0 mph SSW4.8 kmh SSW 13.1 mph21.1 kmh 29.90 in1012.5 mb 0.00 in0.0 mm 0.00 in0.0 mm 0.00 in0.0 mm
02:15 AM 79.9°F26.6°C 71.4°F21.9°C 75% 3.0 mph S4.8 kmh S 13.1 mph21.1 kmh 29.89 in1012.2 mb 0.00 in0.0 mm 0.00 in0.0 mm 0.00 in0.0 mm
02:00 AM 79.9°F26.6°C 71.4°F21.9°C 75% 7.0 mph S11.3 kmh S 17.2 mph27.7 kmh 29.89 in1012.2 mb 0.00 in0.0 mm 0.00 in0.0 mm 0.00 in0.0 mm
01:45 AM 79.7°F26.5°C 71.6°F22.0°C 76% 8.0 mph S12.9 kmh S 13.1 mph21.1 kmh 29.89 in1012.2 mb 0.00 in0.0 mm 0.00 in0.0 mm 0.00 in0.0 mm
01:30 AM 79.5°F26.4°C 71.4°F21.9°C 76% 9.0 mph SSW14.5 kmh SSW 11.1 mph17.9 kmh 29.89 in1012.2 mb 0.00 in0.0 mm 0.00 in0.0 mm 0.00 in0.0 mm
01:15 AM 79.3°F26.3°C 71.2°F21.8°C 76% 4.0 mph S6.4 kmh S 11.1 mph17.9 kmh 29.89 in1012.2 mb 0.00 in0.0 mm 0.00 in0.0 mm 0.00 in0.0 mm
01:00 AM 78.7°F25.9°C 70.6°F21.4°C 76% 2.0 mph S3.2 kmh S 11.1 mph17.9 kmh 29.89 in1012.2 mb 0.00 in0.0 mm 0.00 in0.0 mm 0.00 in0.0 mm
12:45 AM 78.6°F25.9°C 70.5°F21.4°C 76% 3.0 mph S4.8 kmh S 7.1 mph11.4 kmh 29.88 in1011.9 mb 0.00 in0.0 mm 0.00 in0.0 mm 0.00 in0.0 mm
12:30 AM 78.4°F25.8°C 70.3°F21.3°C 76% 3.0 mph SSW4.8 kmh SSW 7.1 mph11.4 kmh 29.89 in1012.2 mb 0.00 in0.0 mm 0.00 in0.0 mm 0.00 in0.0 mm
12:15 AM 78.0°F25.6°C 69.9°F21.1°C 76% 3.0 mph S4.8 kmh S 6.1 mph9.8 kmh 29.89 in1012.2 mb 0.00 in0.0 mm 0.00 in0.0 mm 0.00 in0.0 mm
12:00 AM 77.7°F25.4°C 69.2°F20.7°C 75% 1.0 mph S1.6 kmh S 3.0 mph4.8 kmh 29.90 in1012.5 mb 0.00 in0.0 mm 0.00 in0.0 mm 0.00 in0.0 mm